windsock image

Welcome to Bigfield Strip.

anemometer image
     

 Help for dials.  
 
Local Met:

Wind:   
10 Min average:  
92 ° / 0.0 kts (0.0)
347° / 0.0

Temperature:  
8.1°C C
Dew Point:  
7.3°C C
QNH:  
Trend:  
1021.6 mb mb
+0.1mb/hr
BigField Strip. This image updates approximately every minute, it can have a two minute delay.  
 

Humidity:  
95 %
Sunrise:   03:56z
Sunset:   20:05z
Updated:  
  UTC
 
   More met info, trends, radar, history etc. available here   

LUTON Metar   EGGW 260450Z 30009KT CAVOK 09/07 Q1021
 
  TAF   2015/05/26 06:13 TAF EGGW 260456Z 2606/2706 31010KT 9999 FEW040
 
BENSON Metar   EGUB 260450Z AUTO 25001KT 9999 // FEW023/// BKN034/// 08/07 Q1022
 
  TAF   2015/05/26 06:03 TAF EGUB 260423Z 2606/2615 28003KT 9999 SCT035 PROB40 TEMPO 2606/2609 SCT020
 
Big Field view 1 icon   Big Field view 2 icon   Big Field view 3 icon   Chart AL3a in PDF icon   Chart AL3a in Word icon

WARNING:
This information is provided by the Airstrip unofficial weather station, DO NOT depend on the data provided here for any purpose.
This page is updated for latest Metars & TAF's every 5 minutes. Refresh the browser to check for the lastest.
Page designed for a minimum browser size of 1024x768.
© Copyright 2015 BigField Strip. This page auto generated 05:21 UTC - 26/05/2015   Contact Us
Valid HTML 4.01 Transitional     Windows uptime: 1 Days 2 Hours 49 Minutes 26 Seconds    WD started: 02:37 25/05/15    Free memory: 1521MB     Valid CSS!